Time;durP1;ratioP1;P1;durP2;ratioP2;P2;SDS_P1;SDS_P2;PMS_P1;PMS_P2;Temp;Humidity;BMP_temperature;BMP_pressure;BME280_temperature;BME280_humidity;BME280_pressure;Samples;Min_cycle;Max_cycle;Signal;HPM_P1;HPM_P2
2022/12/22 03:26:41;;;;;;;1.87;1.37;;;10.10;99.90;;;;;;5037363;28;20478;-83
2022/12/22 03:29:08;;;;;;;1.70;1.30;;;10.10;99.90;;;;;;5036432;28;20848;-83
2022/12/22 03:31:35;;;;;;;1.60;1.13;;;10.10;99.90;;;;;;5036708;28;20448;-84
2022/12/22 03:34:03;;;;;;;1.67;1.00;;;10.10;99.90;;;;;;5040484;28;20470;-83
2022/12/22 03:36:30;;;;;;;2.00;1.20;;;10.10;99.90;;;;;;5041944;28;20452;-83
2022/12/22 03:39:20;;;;;;;3.00;1.20;;;10.10;99.90;;;;;;5047503;28;20551;-85
2022/12/22 03:47:15;;;;;;;1.50;1.00;;;10.10;99.90;;;;;;5037242;28;20454;-83
2022/12/22 03:49:43;;;;;;;2.43;0.90;;;10.10;99.90;;;;;;5041392;28;20487;-82
2022/12/22 03:52:10;;;;;;;1.50;1.00;;;10.10;99.90;;;;;;5048263;28;21008;-83
2022/12/22 03:54:37;;;;;;;1.50;0.90;;;10.10;99.90;;;;;;5044140;28;20547;-83
2022/12/22 03:57:03;;;;;;;1.40;0.80;;;10.10;99.90;;;;;;5046327;28;20469;-84
2022/12/22 03:59:30;;;;;;;2.23;1.30;;;10.10;99.90;;;;;;5045463;28;20571;-83
2022/12/22 04:01:57;;;;;;;2.00;1.20;;;10.10;99.90;;;;;;5042541;28;20546;-84
2022/12/22 04:04:26;;;;;;;1.40;0.80;;;10.10;99.90;;;;;;5044846;28;20555;-82
2022/12/22 04:06:54;;;;;;;1.50;1.00;;;10.10;99.90;;;;;;5047290;28;20800;-83
2022/12/22 04:09:23;;;;;;;2.20;1.43;;;10.10;99.90;;;;;;5047073;28;20499;-83
2022/12/22 04:14:35;;;;;;;3.80;1.63;;;10.10;99.90;;;;;;5043518;28;20475;-83
2022/12/22 04:17:01;;;;;;;1.83;1.20;;;10.10;99.90;;;;;;5045680;28;20486;-84
2022/12/22 04:19:28;;;;;;;2.00;1.30;;;10.10;99.90;;;;;;5053437;28;20477;-84
2022/12/22 04:21:56;;;;;;;1.97;1.40;;;10.10;99.90;;;;;;5055651;28;20534;-84
2022/12/22 04:24:23;;;;;;;3.10;1.67;;;10.10;99.90;;;;;;5055712;28;20516;-83
2022/12/22 04:26:50;;;;;;;2.30;1.63;;;10.10;99.90;;;;;;5055770;28;20470;-82
2022/12/22 04:29:17;;;;;;;2.77;1.50;;;10.10;99.90;;;;;;5053645;28;20479;-82
2022/12/22 04:31:44;;;;;;;1.93;1.30;;;10.10;99.90;;;;;;5056838;28;20527;-81
2022/12/22 04:34:11;;;;;;;2.67;1.57;;;10.10;99.90;;;;;;5056054;28;20868;-82
2022/12/22 04:36:38;;;;;;;5.00;1.60;;;10.10;99.90;;;;;;5052176;28;20534;-83
2022/12/22 04:39:06;;;;;;;2.27;1.50;;;10.10;99.90;;;;;;5043638;28;20483;-82
2022/12/22 04:41:33;;;;;;;2.50;1.67;;;10.10;99.90;;;;;;5052980;28;20463;-83
2022/12/22 04:43:59;;;;;;;2.20;1.57;;;10.10;99.90;;;;;;5052676;28;20984;-83
2022/12/22 04:46:26;;;;;;;2.07;1.30;;;10.10;99.90;;;;;;5053081;28;20447;-81
2022/12/22 04:48:53;;;;;;;1.80;1.50;;;10.20;99.90;;;;;;5043428;28;20473;-83
2022/12/22 04:51:20;;;;;;;2.10;1.20;;;10.10;99.90;;;;;;5050341;28;20559;-84
2022/12/22 04:53:46;;;;;;;1.93;1.33;;;10.10;99.90;;;;;;5036538;28;20793;-83
2022/12/22 04:56:14;;;;;;;1.93;1.20;;;10.20;99.90;;;;;;5052186;28;20452;-84
2022/12/22 04:58:41;;;;;;;2.23;1.20;;;10.20;99.90;;;;;;5053618;28;20473;-84
2022/12/22 05:01:09;;;;;;;1.80;1.40;;;10.10;99.90;;;;;;5044859;28;20524;-84
2022/12/22 05:03:36;;;;;;;2.00;1.20;;;10.10;99.90;;;;;;5035159;28;20444;-84
2022/12/22 05:06:04;;;;;;;2.10;1.20;;;10.10;99.90;;;;;;5046848;28;20483;-84
2022/12/22 05:08:31;;;;;;;1.90;1.30;;;10.10;99.90;;;;;;5053054;28;20534;-83
2022/12/22 05:10:57;;;;;;;1.70;1.10;;;10.10;99.90;;;;;;5051232;28;20480;-84
2022/12/22 05:13:26;;;;;;;1.83;1.10;;;10.10;99.90;;;;;;5043311;28;20461;-84
2022/12/22 05:15:52;;;;;;;2.43;1.07;;;10.20;99.90;;;;;;5052956;28;20512;-84
2022/12/22 05:18:19;;;;;;;1.80;1.10;;;10.20;99.90;;;;;;5052371;28;20465;-84
2022/12/22 05:20:46;;;;;;;2.27;1.30;;;10.20;99.90;;;;;;5052504;28;20532;-83
2022/12/22 05:23:13;;;;;;;1.87;1.03;;;10.20;99.90;;;;;;5051527;28;20527;-84
2022/12/22 05:25:39;;;;;;;1.50;0.97;;;10.20;99.90;;;;;;5035678;28;20521;-82
2022/12/22 05:28:06;;;;;;;1.83;0.93;;;10.20;99.90;;;;;;5050844;28;20473;-83
2022/12/22 05:30:34;;;;;;;1.80;1.40;;;10.20;99.90;;;;;;5049871;28;20490;-83
2022/12/22 05:33:01;;;;;;;1.90;1.00;;;10.20;99.90;;;;;;5045736;28;20816;-83
2022/12/22 05:35:28;;;;;;;1.57;1.03;;;10.30;99.90;;;;;;5045351;28;20480;-83
2022/12/22 05:37:54;;;;;;;2.13;1.10;;;10.30;99.90;;;;;;5044176;28;20475;-83
2022/12/22 05:40:21;;;;;;;1.40;0.90;;;10.30;99.90;;;;;;5043279;28;20457;-83
2022/12/22 05:42:48;;;;;;;1.83;1.30;;;10.30;99.90;;;;;;5043042;28;20519;-83
2022/12/22 05:45:17;;;;;;;1.50;1.00;;;10.30;99.90;;;;;;5043915;28;20467;-83
2022/12/22 05:47:47;;;;;;;2.87;1.00;;;10.30;99.90;;;;;;5047149;28;20986;-83
2022/12/22 05:50:15;;;;;;;1.80;1.10;;;10.30;99.90;;;;;;5042171;28;20496;-83
2022/12/22 05:52:43;;;;;;;2.47;1.00;;;10.30;99.90;;;;;;5045148;28;20456;-83
2022/12/22 05:55:10;;;;;;;1.80;1.10;;;10.20;99.90;;;;;;5045844;28;20972;-82
2022/12/22 05:57:38;;;;;;;1.97;1.23;;;10.20;99.90;;;;;;5044130;28;20456;-82
2022/12/22 06:00:06;;;;;;;1.63;1.10;;;10.20;99.90;;;;;;5052293;28;20440;-81
2022/12/22 06:02:33;;;;;;;2.13;1.03;;;10.20;99.90;;;;;;5045272;28;20466;-83
2022/12/22 06:05:01;;;;;;;1.63;1.00;;;10.20;99.90;;;;;;5037259;28;20459;-82
2022/12/22 06:07:28;;;;;;;2.13;1.10;;;10.20;99.90;;;;;;5048303;28;20517;-83
2022/12/22 06:09:55;;;;;;;1.90;1.00;;;10.20;99.90;;;;;;5035315;28;20447;-83
2022/12/22 06:12:22;;;;;;;8.67;5.30;;;10.30;99.90;;;;;;5036252;28;21055;-84
2022/12/22 06:14:49;;;;;;;2.77;1.80;;;10.20;99.90;;;;;;5037171;28;20457;-80
2022/12/22 06:17:15;;;;;;;2.20;1.60;;;10.30;99.90;;;;;;5036663;28;20456;-82
2022/12/22 06:19:42;;;;;;;2.40;1.40;;;10.30;99.90;;;;;;5019067;28;20484;-83
2022/12/22 06:22:10;;;;;;;2.43;1.50;;;10.30;99.90;;;;;;5036781;28;20497;-81
2022/12/22 06:24:40;;;;;;;3.93;2.00;;;10.30;99.90;;;;;;5037155;28;20539;-81
2022/12/22 06:27:07;;;;;;;1.87;1.23;;;10.30;99.90;;;;;;5036843;28;20445;-84
2022/12/22 06:29:34;;;;;;;3.93;1.80;;;10.40;99.90;;;;;;5019505;28;20475;-83
2022/12/22 06:32:01;;;;;;;4.50;2.57;;;10.40;99.90;;;;;;5037258;28;20574;-82
2022/12/22 06:34:28;;;;;;;5.77;2.77;;;10.40;99.90;;;;;;5037178;28;20473;-82
2022/12/22 06:36:55;;;;;;;4.53;2.10;;;10.50;99.90;;;;;;5036886;28;20456;-80
2022/12/22 06:39:23;;;;;;;4.73;2.20;;;10.50;99.90;;;;;;5035749;28;20487;-81
2022/12/22 06:44:34;;;;;;;6.20;2.40;;;10.50;99.90;;;;;;5036984;28;20457;-82
2022/12/22 06:47:01;;;;;;;4.80;2.13;;;10.50;99.90;;;;;;5037004;28;20447;-81
2022/12/22 06:49:27;;;;;;;4.53;2.57;;;10.50;99.90;;;;;;5036425;28;20481;-81
2022/12/22 06:51:54;;;;;;;2.77;1.87;;;10.50;99.90;;;;;;5036646;28;20610;-80
2022/12/22 06:54:22;;;;;;;3.70;2.73;;;10.50;99.90;;;;;;5037563;28;20459;-80
2022/12/22 06:56:49;;;;;;;3.53;2.20;;;10.50;99.90;;;;;;5047346;28;20466;-81
2022/12/22 06:59:16;;;;;;;3.60;2.00;;;10.50;99.90;;;;;;5059868;22;20543;-81
2022/12/22 07:01:43;;;;;;;5.13;2.40;;;10.50;99.90;;;;;;5032266;28;20460;-80
2022/12/22 07:04:10;;;;;;;3.67;2.47;;;10.50;99.90;;;;;;5023743;28;20466;-80
2022/12/22 07:06:37;;;;;;;4.07;1.90;;;10.50;99.90;;;;;;5015959;28;21202;-80
2022/12/22 07:09:04;;;;;;;4.37;2.63;;;10.50;99.90;;;;;;5018700;28;20992;-80
2022/12/22 07:11:32;;;;;;;4.90;3.20;;;10.50;99.90;;;;;;5020126;28;20486;-82
2022/12/22 07:13:59;;;;;;;5.70;2.73;;;10.50;99.90;;;;;;5036215;28;20989;-81
2022/12/22 07:16:26;;;;;;;7.07;3.33;;;10.50;99.90;;;;;;5036060;28;20461;-81
2022/12/22 07:18:52;;;;;;;3.77;2.60;;;10.40;99.90;;;;;;5036175;28;20496;-80
2022/12/22 07:21:19;;;;;;;3.10;2.43;;;10.40;99.90;;;;;;5036523;28;20451;-81
2022/12/22 07:23:46;;;;;;;3.23;2.80;;;10.40;99.90;;;;;;5036409;28;20464;-80
2022/12/22 07:26:13;;;;;;;4.10;3.13;;;10.40;99.90;;;;;;5036526;28;20455;-80
2022/12/22 07:28:41;;;;;;;3.93;2.87;;;10.40;99.90;;;;;;5033765;28;20480;-80
2022/12/22 07:31:09;;;;;;;6.10;3.50;;;10.40;99.90;;;;;;5035672;28;20486;-80
2022/12/22 07:33:36;;;;;;;3.40;3.03;;;10.40;99.90;;;;;;5035633;28;20459;-79
2022/12/22 07:36:06;;;;;;;7.47;4.53;;;10.40;99.90;;;;;;5035605;28;20467;-81
2022/12/22 07:38:37;;;;;;;8.03;5.73;;;10.40;99.90;;;;;;5035611;28;20452;-80
2022/12/22 07:42:43;;;;;;;8.90;5.40;;;10.40;99.90;;;;;;5036065;28;20452;-80
2022/12/22 07:43:51;;;;;;;10.33;7.43;;;10.40;99.90;;;;;;5035794;28;20480;-80
2022/12/22 07:46:18;;;;;;;8.33;6.70;;;10.50;99.90;;;;;;5035654;28;20547;-82
2022/12/22 07:51:32;;;;;;;12.17;8.10;;;10.50;99.90;;;;;;5040156;28;20489;-79
2022/12/22 07:53:59;;;;;;;11.93;8.80;;;10.50;99.90;;;;;;5028765;28;20542;-81
2022/12/22 07:56:26;;;;;;;13.83;9.50;;;10.50;99.90;;;;;;5042653;28;20459;-81
2022/12/22 07:58:54;;;;;;;14.80;9.87;;;10.60;99.90;;;;;;5037547;28;20582;-81
2022/12/22 08:01:21;;;;;;;17.47;10.53;;;10.60;99.90;;;;;;5037376;28;20455;-81
2022/12/22 08:03:48;;;;;;;14.83;11.50;;;10.60;99.90;;;;;;5036942;28;20463;-81
2022/12/22 08:06:15;;;;;;;15.33;10.97;;;10.60;99.90;;;;;;5036413;28;20838;-81
2022/12/22 08:08:41;;;;;;;16.77;12.33;;;10.60;99.90;;;;;;5034675;28;20863;-79
2022/12/22 08:11:08;;;;;;;17.20;12.33;;;10.60;99.90;;;;;;5035483;28;20582;-80
2022/12/22 08:13:35;;;;;;;17.37;11.40;;;10.60;99.90;;;;;;5035354;28;20448;-80
2022/12/22 08:16:04;;;;;;;17.07;12.80;;;10.60;99.90;;;;;;5035194;28;20464;-81
2022/12/22 08:18:32;;;;;;;16.20;12.17;;;10.60;99.90;;;;;;5035451;28;20448;-81
2022/12/22 08:20:59;;;;;;;24.77;13.30;;;10.70;99.90;;;;;;5036721;28;20456;-81
2022/12/22 08:23:25;;;;;;;23.90;15.27;;;10.70;99.90;;;;;;5034918;28;20455;-79
2022/12/22 08:25:57;;;;;;;16.67;12.50;;;10.60;99.90;;;;;;5035046;28;20460;-80
2022/12/22 08:28:24;;;;;;;16.00;12.73;;;10.60;99.90;;;;;;5033897;28;20926;-81
2022/12/22 08:30:51;;;;;;;19.87;12.90;;;10.60;99.90;;;;;;5034596;28;20478;-81
2022/12/22 08:33:19;;;;;;;21.17;12.23;;;10.60;99.90;;;;;;5034356;28;20462;-81
2022/12/22 08:35:46;;;;;;;18.73;11.43;;;10.60;99.90;;;;;;5034973;28;20481;-81
2022/12/22 08:38:14;;;;;;;18.23;11.57;;;10.60;99.90;;;;;;5033980;28;20462;-81
2022/12/22 08:40:43;;;;;;;16.00;10.13;;;10.50;99.90;;;;;;5034272;28;20452;-81
2022/12/22 08:43:10;;;;;;;13.87;9.53;;;10.60;99.90;;;;;;5041976;28;20459;-81
2022/12/22 08:45:37;;;;;;;13.70;8.77;;;10.50;99.90;;;;;;5051666;28;20460;-81
2022/12/22 08:48:04;;;;;;;15.30;10.03;;;10.60;99.90;;;;;;5033847;28;20448;-80
2022/12/22 08:50:32;;;;;;;16.10;10.30;;;10.50;99.90;;;;;;5034722;28;20481;-80
2022/12/22 08:53:02;;;;;;;13.60;8.87;;;10.50;99.90;;;;;;5034478;28;20546;-81
2022/12/22 08:55:29;;;;;;;18.00;9.57;;;10.50;99.90;;;;;;5037869;28;20968;-81
2022/12/22 08:57:56;;;;;;;19.10;10.73;;;10.50;99.90;;;;;;5038045;28;20540;-82
2022/12/22 09:00:23;;;;;;;13.97;9.70;;;10.50;99.90;;;;;;5038808;28;20578;-82
2022/12/22 09:02:50;;;;;;;18.23;9.53;;;10.60;99.90;;;;;;5038901;28;20532;-81
2022/12/22 09:05:17;;;;;;;17.70;9.40;;;10.60;99.90;;;;;;5039344;28;20925;-81
2022/12/22 09:07:47;;;;;;;13.23;8.63;;;10.60;99.90;;;;;;5040122;28;20459;-82
2022/12/22 09:10:14;;;;;;;16.47;10.17;;;10.60;99.90;;;;;;5041106;28;20480;-83
2022/12/22 09:12:41;;;;;;;20.87;10.33;;;10.60;99.90;;;;;;5041305;28;20494;-82
2022/12/22 09:15:08;;;;;;;16.00;9.67;;;10.60;99.90;;;;;;5041079;28;21185;-83
2022/12/22 09:17:36;;;;;;;16.20;9.90;;;10.70;99.90;;;;;;5041221;28;20551;-82
2022/12/22 09:20:04;;;;;;;14.20;9.47;;;10.70;99.90;;;;;;5039549;28;20486;-82
2022/12/22 09:22:31;;;;;;;14.27;8.70;;;10.80;99.90;;;;;;5040471;28;20460;-82
2022/12/22 09:24:59;;;;;;;17.47;9.53;;;10.80;99.90;;;;;;5039096;28;20444;-82
2022/12/22 09:27:26;;;;;;;17.30;11.20;;;10.80;99.90;;;;;;5039710;28;20540;-83
2022/12/22 09:29:53;;;;;;;17.60;10.90;;;10.50;99.90;;;;;;5038529;28;20468;-81
2022/12/22 09:32:19;;;;;;;16.80;10.93;;;11.00;99.90;;;;;;5039725;28;20491;-81
2022/12/22 09:34:47;;;;;;;18.07;11.73;;;11.10;99.90;;;;;;5039566;28;20961;-82
2022/12/22 09:37:14;;;;;;;16.47;11.90;;;11.00;99.90;;;;;;5039060;28;20456;-83
2022/12/22 09:39:41;;;;;;;19.40;13.20;;;11.10;99.90;;;;;;5047024;28;20544;-82
2022/12/22 09:42:13;;;;;;;23.97;11.83;;;;;;;;;;5042706;28;20498;-83
2022/12/22 09:44:44;;;;;;;22.57;13.17;;;11.20;99.90;;;;;;5040039;28;20560;-83
2022/12/22 09:47:18;;;;;;;19.80;11.43;;;11.30;99.90;;;;;;5040146;28;20502;-83
2022/12/22 09:49:45;;;;;;;20.17;12.60;;;11.30;99.90;;;;;;5037885;28;20559;-81
2022/12/22 09:52:23;;;;;;;14.77;9.53;;;11.20;99.90;;;;;;5037821;28;20559;-82
2022/12/22 09:54:50;;;;;;;18.80;12.53;;;11.40;99.90;;;;;;5038311;28;20444;-83
2022/12/22 09:57:19;;;;;;;16.60;11.33;;;11.50;99.90;;;;;;5038864;28;20964;-83
2022/12/22 09:59:46;;;;;;;19.30;12.47;;;11.80;99.90;;;;;;5036452;28;20564;-82
2022/12/22 10:02:24;;;;;;;17.70;12.00;;;11.90;99.90;;;;;;5034300;28;20495;-81
2022/12/22 10:05:06;;;;;;;18.97;11.37;;;11.80;99.90;;;;;;5036523;28;20444;-81
2022/12/22 10:07:34;;;;;;;21.17;11.70;;;11.50;99.90;;;;;;5035943;28;20440;-78
2022/12/22 10:10:06;;;;;;;19.20;11.10;;;11.30;99.90;;;;;;5033326;28;20872;-80
2022/12/22 10:12:34;;;;;;;21.10;13.27;;;11.30;99.90;;;;;;5033676;28;20491;-81
2022/12/22 10:15:01;;;;;;;19.13;12.47;;;11.30;99.90;;;;;;5035289;28;20499;-81
2022/12/22 10:17:30;;;;;;;17.03;11.17;;;11.30;99.90;;;;;;5035644;28;20535;-78
2022/12/22 10:20:09;;;;;;;27.17;15.80;;;11.40;99.90;;;;;;5018036;28;20893;-80
2022/12/22 10:22:46;;;;;;;24.60;15.10;;;11.30;99.90;;;;;;5035419;28;20450;-80
2022/12/22 10:25:30;;;;;;;20.00;14.73;;;11.20;99.90;;;;;;5035804;28;20459;-80
2022/12/22 10:28:00;;;;;;;23.33;14.97;;;11.10;99.90;;;;;;5034452;28;20466;-80
2022/12/22 10:30:28;;;;;;;24.90;15.27;;;11.00;99.90;;;;;;5035073;28;20547;-80
2022/12/22 10:33:02;;;;;;;20.13;13.40;;;10.90;99.90;;;;;;5034942;28;20492;-80
2022/12/22 10:35:42;;;;;;;26.13;15.53;;;10.90;99.90;;;;;;5035279;28;20436;-81
2022/12/22 10:38:23;;;;;;;20.83;14.03;;;10.80;99.90;;;;;;5033999;28;20452;-80
2022/12/22 10:40:52;;;;;;;19.47;13.57;;;10.70;99.90;;;;;;5034804;28;20920;-80
2022/12/22 10:43:23;;;;;;;25.40;17.13;;;10.70;99.90;;;;;;5034170;28;21068;-80
2022/12/22 10:45:53;;;;;;;24.80;15.97;;;10.70;99.90;;;;;;5032784;28;20448;-80
2022/12/22 10:48:27;;;;;;;21.30;15.67;;;10.70;99.90;;;;;;5031682;28;20471;-79
2022/12/22 10:50:54;;;;;;;23.63;15.20;;;10.60;99.90;;;;;;5032858;28;20452;-79
2022/12/22 10:53:21;;;;;;;24.40;15.40;;;10.50;99.90;;;;;;5032973;28;20487;-81
2022/12/22 10:56:05;;;;;;;25.50;15.57;;;10.60;99.90;;;;;;5033417;28;20509;-81
2022/12/22 10:58:47;;;;;;;21.23;14.73;;;10.40;99.90;;;;;;5032080;28;20456;-81
2022/12/22 11:01:24;;;;;;;24.27;14.70;;;10.40;99.90;;;;;;5033302;28;20478;-80
2022/12/22 11:03:51;;;;;;;26.40;16.10;;;10.40;99.90;;;;;;5032958;28;20542;-82
2022/12/22 11:06:18;;;;;;;23.60;15.20;;;10.40;99.90;;;;;;5033850;28;20452;-81
2022/12/22 11:08:45;;;;;;;19.90;13.27;;;10.60;99.90;;;;;;5035415;28;20499;-79
2022/12/22 11:11:22;;;;;;;20.37;12.93;;;10.80;99.90;;;;;;5049685;28;20911;-79
2022/12/22 11:14:01;;;;;;;18.43;11.50;;;10.80;99.90;;;;;;5049332;28;20459;-81
2022/12/22 11:16:35;;;;;;;19.83;13.40;;;10.80;99.90;;;;;;5047817;28;20441;-80
2022/12/22 11:19:14;;;;;;;19.57;12.27;;;11.00;99.90;;;;;;5035815;28;20479;-81
2022/12/22 11:21:50;;;;;;;18.23;11.73;;;11.10;99.90;;;;;;5036183;28;20460;-80
2022/12/22 11:24:30;;;;;;;21.90;13.20;;;11.20;99.90;;;;;;5036031;28;20450;-81
2022/12/22 11:27:08;;;;;;;15.50;11.53;;;11.80;99.90;;;;;;5036342;28;20459;-81
2022/12/22 11:30:03;;;;;;;12.73;9.23;;;13.20;99.90;;;;;;5043127;28;20477;-81
2022/12/22 11:33:04;;;;;;;12.00;8.57;;;14.60;99.90;;;;;;5043280;28;20479;-81
2022/12/22 11:35:45;;;;;;;14.23;9.90;;;14.60;99.90;;;;;;5027864;28;21026;-82
2022/12/22 11:38:20;;;;;;;17.07;9.07;;;14.40;99.90;;;;;;5038649;28;20464;-82
2022/12/22 11:40:52;;;;;;;15.83;10.77;;;14.10;99.90;;;;;;5037570;28;20531;-82
2022/12/22 11:43:25;;;;;;;18.77;12.57;;;13.90;99.90;;;;;;5038231;28;20865;-81
2022/12/22 11:46:07;;;;;;;17.90;12.50;;;14.30;99.90;;;;;;5038594;28;20520;-82
2022/12/22 11:48:55;;;;;;;16.83;13.03;;;14.60;99.90;;;;;;5036515;28;20454;-82
2022/12/22 11:51:35;;;;;;;18.80;13.70;;;14.30;99.90;;;;;;5036652;28;20493;-82
2022/12/22 11:54:28;;;;;;;21.83;13.33;;;13.70;99.90;;;;;;5017716;28;20453;-82
2022/12/22 11:57:02;;;;;;;22.00;15.47;;;13.30;99.90;;;;;;5023889;28;20455;-80
2022/12/22 11:59:41;;;;;;;19.73;14.10;;;12.90;99.90;;;;;;5038989;28;20464;-81
2022/12/22 12:02:40;;;;;;;22.00;14.77;;;12.80;99.90;;;;;;5025011;28;20436;-82
2022/12/22 12:05:20;;;;;;;18.50;13.87;;;13.00;99.90;;;;;;5040292;28;20448;-81
2022/12/22 12:07:51;;;;;;;19.27;12.93;;;13.30;99.90;;;;;;5039019;28;20476;-79
2022/12/22 12:10:23;;;;;;;14.00;10.50;;;14.50;99.90;;;;;;5040540;28;20481;-82
2022/12/22 12:12:56;;;;;;;18.30;12.67;;;17.00;99.90;;;;;;5040172;28;20476;-82
2022/12/22 12:15:30;;;;;;;17.00;11.90;;;17.80;99.90;;;;;;5040269;28;20434;-83
2022/12/22 12:18:17;;;;;;;14.83;11.57;;;17.60;99.90;;;;;;5040094;28;20462;-83
2022/12/22 12:20:58;;;;;;;17.60;12.80;;;17.00;99.90;;;;;;5041190;28;20449;-83
2022/12/22 12:23:41;;;;;;;16.80;11.30;;;15.60;99.90;;;;;;5040209;28;20535;-83
2022/12/22 12:26:15;;;;;;;19.83;12.50;;;14.90;99.90;;;;;;5020474;28;21008;-82
2022/12/22 12:28:55;;;;;;;16.43;11.43;;;14.00;99.90;;;;;;5031589;28;20565;-82
2022/12/22 12:31:29;;;;;;;16.87;10.97;;;13.30;99.90;;;;;;5040815;28;20455;-83
2022/12/22 12:33:59;;;;;;;16.80;11.70;;;12.90;99.90;;;;;;5040001;28;20463;-82
2022/12/22 12:36:34;;;;;;;16.50;11.60;;;12.60;99.90;;;;;;5039526;28;20490;-82
2022/12/22 12:39:09;;;;;;;19.23;11.97;;;12.50;99.90;;;;;;5039017;28;20572;-83
2022/12/22 12:41:46;;;;;;;18.03;11.63;;;12.00;99.90;;;;;;5039669;28;20490;-82
2022/12/22 12:44:17;;;;;;;15.67;10.53;;;11.80;99.90;;;;;;5040468;28;20455;-82
2022/12/22 12:47:05;;;;;;;16.70;10.60;;;11.90;99.90;;;;;;5040440;28;20560;-83
2022/12/22 12:50:08;;;;;;;21.17;10.97;;;11.80;99.90;;;;;;5039042;28;20564;-83
2022/12/22 12:53:04;;;;;;;16.73;9.00;;;11.70;99.90;;;;;;5037120;28;20523;-83
2022/12/22 12:55:33;;;;;;;15.47;8.90;;;11.50;99.90;;;;;;5038649;28;20459;-82
2022/12/22 12:58:02;;;;;;;12.63;8.30;;;11.30;99.90;;;;;;5038868;28;20484;-81
2022/12/22 13:00:45;;;;;;;14.10;8.40;;;11.10;99.90;;;;;;5062143;22;20492;-83
2022/12/22 13:03:36;;;;;;;15.83;8.20;;;11.10;99.90;;;;;;5024682;28;20612;-83
2022/12/22 13:06:06;;;;;;;14.97;7.93;;;11.20;99.90;;;;;;5020083;28;20453;-84
2022/12/22 13:09:10;;;;;;;13.87;8.77;;;11.00;99.90;;;;;;5036000;28;20478;-83
2022/12/22 13:11:38;;;;;;;10.10;7.33;;;11.00;99.90;;;;;;5019827;28;20557;-83
2022/12/22 13:14:05;;;;;;;12.33;7.50;;;11.20;99.90;;;;;;5011775;28;20493;-82
2022/12/22 13:16:34;;;;;;;10.97;7.70;;;11.50;99.90;;;;;;5000744;28;20535;-82
2022/12/22 13:19:26;;;;;;;13.27;7.80;;;11.80;99.90;;;;;;5001962;28;20468;-82
2022/12/22 13:21:56;;;;;;;11.77;8.10;;;11.70;99.90;;;;;;5003988;28;20472;-83
2022/12/22 13:24:29;;;;;;;10.90;7.57;;;11.70;99.90;;;;;;5023054;28;20461;-83
2022/12/22 13:27:02;;;;;;;13.20;8.20;;;12.00;99.90;;;;;;5018112;28;20453;-83
2022/12/22 13:29:39;;;;;;;15.70;9.10;;;12.10;99.90;;;;;;5004959;28;20485;-83
2022/12/22 13:32:20;;;;;;;12.43;7.70;;;12.20;99.90;;;;;;4999923;28;20473;-83
2022/12/22 13:34:52;;;;;;;13.23;9.20;;;12.00;99.90;;;;;;4999810;28;20466;-83
2022/12/22 13:37:22;;;;;;;13.03;9.17;;;12.00;99.90;;;;;;5003546;28;20446;-83
2022/12/22 13:40:12;;;;;;;15.23;9.27;;;12.00;99.90;;;;;;5018748;28;20469;-82
2022/12/22 13:42:42;;;;;;;10.83;8.60;;;11.90;99.90;;;;;;5013474;28;20458;-82
2022/12/22 13:45:15;;;;;;;14.37;9.30;;;11.90;99.90;;;;;;5000892;28;20469;-83
2022/12/22 13:47:44;;;;;;;15.60;8.70;;;11.90;99.90;;;;;;5008428;28;20472;-83
2022/12/22 13:50:19;;;;;;;11.27;7.67;;;11.70;99.90;;;;;;5018887;28;20993;-83
2022/12/22 13:52:46;;;;;;;14.53;10.50;;;11.80;99.90;;;;;;5009641;28;20853;-83
2022/12/22 13:55:18;;;;;;;14.60;11.00;;;12.00;99.90;;;;;;5000556;28;20461;-84
2022/12/22 13:57:45;;;;;;;16.43;8.80;;;11.90;99.90;;;;;;5008976;28;20467;-84
2022/12/22 14:00:20;;;;;;;12.83;9.30;;;11.90;99.90;;;;;;5018745;28;20478;-83
2022/12/22 14:02:49;;;;;;;13.20;9.17;;;11.90;99.90;;;;;;5008853;28;20550;-84
2022/12/22 14:05:16;;;;;;;14.90;9.47;;;11.90;99.90;;;;;;5012436;28;20816;-84
2022/12/22 14:07:58;;;;;;;13.77;10.10;;;11.50;99.90;;;;;;5013103;28;20467;-83
2022/12/22 14:10:33;;;;;;;20.40;10.50;;;11.30;99.90;;;;;;4999974;28;20506;-82
2022/12/22 14:13:06;;;;;;;14.80;10.07;;;11.10;99.90;;;;;;5008508;28;20488;-84
2022/12/22 14:15:34;;;;;;;14.50;10.10;;;11.10;99.90;;;;;;5015001;28;20442;-84
2022/12/22 14:18:01;;;;;;;13.67;9.87;;;11.00;99.90;;;;;;5009815;28;20461;-83
2022/12/22 14:20:34;;;;;;;15.17;9.90;;;10.80;99.90;;;;;;5018564;28;20479;-82
2022/12/22 14:23:05;;;;;;;24.73;12.50;;;10.80;99.90;;;;;;5015165;28;20512;-84
2022/12/22 14:25:36;;;;;;;13.43;9.67;;;10.80;99.90;;;;;;5004996;28;20462;-84
2022/12/22 14:28:06;;;;;;;16.77;10.90;;;10.70;99.90;;;;;;5007708;28;20549;-84
2022/12/22 14:30:35;;;;;;;13.60;10.17;;;10.70;99.90;;;;;;5018648;28;20534;-83
2022/12/22 14:33:17;;;;;;;15.80;9.93;;;10.60;99.90;;;;;;5016522;28;20493;-84
2022/12/22 14:35:44;;;;;;;17.97;10.83;;;10.40;99.90;;;;;;5007689;28;20477;-83
2022/12/22 14:38:21;;;;;;;13.57;9.07;;;10.40;99.90;;;;;;5017438;28;20458;-83
2022/12/22 14:40:50;;;;;;;14.17;10.57;;;10.40;99.90;;;;;;5013197;28;20471;-83
2022/12/22 14:43:29;;;;;;;14.40;10.03;;;10.40;99.90;;;;;;4998338;28;20497;-83
2022/12/22 14:46:04;;;;;;;11.97;9.80;;;10.30;99.90;;;;;;5007933;28;20457;-83
2022/12/22 14:48:35;;;;;;;11.10;9.43;;;10.40;99.90;;;;;;5015918;28;20462;-84
2022/12/22 14:51:03;;;;;;;15.17;10.30;;;10.30;99.90;;;;;;5016702;28;20475;-83
2022/12/22 14:53:38;;;;;;;13.33;10.00;;;10.30;99.90;;;;;;5014863;28;20478;-84
2022/12/22 14:56:12;;;;;;;15.60;9.47;;;10.30;99.90;;;;;;5003547;28;20986;-83
2022/12/22 14:58:41;;;;;;;14.97;10.23;;;10.30;99.90;;;;;;5016763;28;20455;-83
2022/12/22 15:01:17;;;;;;;16.97;9.80;;;10.40;99.90;;;;;;5017751;28;20482;-83
2022/12/22 15:03:45;;;;;;;12.37;8.40;;;10.30;99.90;;;;;;5016075;28;20445;-84
2022/12/22 15:06:34;;;;;;;14.90;9.37;;;10.40;99.90;;;;;;5011203;28;20492;-84
2022/12/22 15:09:23;;;;;;;13.10;9.00;;;10.30;99.90;;;;;;5014058;28;20449;-84
2022/12/22 15:11:54;;;;;;;13.47;8.83;;;10.40;99.90;;;;;;5017813;28;20448;-84
2022/12/22 15:14:24;;;;;;;12.63;7.10;;;10.40;99.90;;;;;;5003104;28;20474;-84
2022/12/22 15:16:55;;;;;;;14.50;9.70;;;10.40;99.90;;;;;;5015042;28;20480;-84
2022/12/22 15:19:22;;;;;;;17.90;8.10;;;10.20;99.90;;;;;;5017813;28;20482;-84
2022/12/22 15:21:50;;;;;;;15.00;8.30;;;10.20;99.90;;;;;;5002859;28;20468;-84
2022/12/22 15:24:18;;;;;;;12.57;8.03;;;10.10;99.90;;;;;;5005818;28;20460;-83
2022/12/22 15:26:46;;;;;;;15.13;8.27;;;10.00;99.90;;;;;;5004237;28;20528;-83
2022/12/22 15:29:14;;;;;;;13.00;8.00;;;10.00;99.90;;;;;;4998150;28;20459;-83
2022/12/22 15:31:42;;;;;;;11.17;7.87;;;9.90;99.90;;;;;;5020103;28;20460;-84
2022/12/22 15:34:18;;;;;;;13.60;7.60;;;9.90;99.90;;;;;;5016370;28;20481;-83
2022/12/22 15:36:45;;;;;;;13.83;7.50;;;9.80;99.90;;;;;;5019852;28;20460;-83
2022/12/22 15:39:15;;;;;;;11.50;7.33;;;9.80;99.90;;;;;;5022085;28;20479;-84
2022/12/22 15:41:43;;;;;;;11.37;7.70;;;9.80;99.90;;;;;;5022987;28;20464;-83
2022/12/22 15:44:09;;;;;;;13.47;8.00;;;9.60;99.90;;;;;;5022189;28;20458;-83
2022/12/22 15:46:39;;;;;;;16.93;9.13;;;9.60;99.90;;;;;;5042246;28;20465;-83
2022/12/22 15:49:11;;;;;;;16.80;7.80;;;9.60;99.90;;;;;;5023718;28;20458;-83
2022/12/22 15:51:39;;;;;;;12.57;8.27;;;9.60;99.90;;;;;;5042025;28;20452;-82
2022/12/22 15:54:07;;;;;;;11.60;8.30;;;9.60;99.90;;;;;;5005183;28;20481;-84
2022/12/22 15:56:34;;;;;;;13.47;9.00;;;9.60;99.90;;;;;;5002738;28;20464;-84
2022/12/22 15:59:01;;;;;;;13.57;9.80;;;9.60;99.90;;;;;;5019154;28;20833;-85
2022/12/22 16:01:28;;;;;;;12.20;8.23;;;9.50;99.90;;;;;;5011640;28;20495;-85
2022/12/22 16:03:56;;;;;;;11.80;7.90;;;9.50;99.90;;;;;;5006263;28;20447;-84
2022/12/22 16:06:23;;;;;;;10.87;8.40;;;9.50;99.90;;;;;;5014791;28;20456;-85
2022/12/22 16:08:53;;;;;;;13.70;8.90;;;9.50;99.90;;;;;;5002621;28;20452;-84
2022/12/22 16:11:20;;;;;;;14.40;8.60;;;9.50;99.90;;;;;;5009227;28;20837;-85
2022/12/22 16:13:47;;;;;;;13.00;8.90;;;9.50;99.90;;;;;;5020512;28;21001;-83
2022/12/22 16:16:15;;;;;;;12.13;9.63;;;9.50;99.90;;;;;;5009156;28;20488;-83
2022/12/22 16:18:41;;;;;;;13.27;8.67;;;9.50;99.90;;;;;;4999021;28;20466;-83
2022/12/22 16:21:15;;;;;;;11.90;8.57;;;9.50;99.90;;;;;;5001978;28;20560;-83
2022/12/22 16:23:46;;;;;;;13.53;9.50;;;9.50;99.90;;;;;;5000747;28;20439;-83
2022/12/22 16:26:17;;;;;;;11.20;8.33;;;9.60;99.90;;;;;;5009526;28;20458;-82
2022/12/22 16:28:44;;;;;;;12.03;8.53;;;9.60;99.90;;;;;;5018070;28;20467;-83
2022/12/22 16:31:18;;;;;;;12.03;9.13;;;9.60;99.90;;;;;;5011160;28;20483;-83
2022/12/22 16:33:44;;;;;;;10.60;8.33;;;9.60;99.90;;;;;;4999891;28;21009;-83
2022/12/22 16:36:13;;;;;;;14.47;8.83;;;9.60;99.90;;;;;;5008080;28;20458;-83